createdAt,value
2022-11-19T00:01:23.543Z,0.30
2022-11-19T00:03:53.006Z,0.20
2022-11-19T00:06:26.868Z,0.10
2022-11-19T00:08:55.509Z,0.20
2022-11-19T00:11:28.325Z,0.20
2022-11-19T00:13:55.528Z,0.10
2022-11-19T00:16:22.731Z,0.10
2022-11-19T00:18:50.310Z,0.10
2022-11-19T00:21:17.526Z,0.00
2022-11-19T00:23:44.880Z,0.10
2022-11-19T00:26:14.918Z,0.10
2022-11-19T00:28:43.450Z,0.10
2022-11-19T00:31:13.658Z,0.00
2022-11-19T00:33:42.704Z,0.00
2022-11-19T00:36:14.211Z,0.00
2022-11-19T00:38:42.102Z,0.10
2022-11-19T00:41:09.970Z,0.10
2022-11-19T00:43:37.628Z,0.00
2022-11-19T00:46:05.431Z,0.00
2022-11-19T00:48:33.052Z,0.10
2022-11-19T00:51:00.810Z,0.20
2022-11-19T00:53:28.268Z,0.00
2022-11-19T00:55:55.524Z,0.00
2022-11-19T00:58:22.773Z,-0.20
2022-11-19T01:00:50.244Z,-0.20
2022-11-19T01:03:17.696Z,-0.10
2022-11-19T01:05:45.119Z,0.00
2022-11-19T01:08:12.413Z,0.00
2022-11-19T01:10:39.577Z,0.00
2022-11-19T01:13:07.067Z,-0.10
2022-11-19T01:15:34.440Z,-0.10
2022-11-19T01:18:01.865Z,-0.20
2022-11-19T01:20:29.171Z,-0.10
2022-11-19T01:22:56.776Z,-0.10
2022-11-19T01:25:24.093Z,-0.20
2022-11-19T01:27:51.294Z,-0.20
2022-11-19T01:30:19.000Z,-0.10
2022-11-19T01:32:46.183Z,-0.10
2022-11-19T01:35:13.625Z,-0.10
2022-11-19T01:37:40.815Z,-0.10
2022-11-19T01:40:08.981Z,-0.20
2022-11-19T01:42:36.488Z,-0.10
2022-11-19T01:45:07.654Z,-0.10
2022-11-19T01:47:35.192Z,-0.10
2022-11-19T01:50:03.179Z,-0.30
2022-11-19T01:52:30.808Z,-0.30
2022-11-19T01:54:58.489Z,-0.30
2022-11-19T01:57:25.921Z,-0.30
2022-11-19T01:59:54.076Z,-0.30
2022-11-19T02:02:21.683Z,-0.30
2022-11-19T02:04:51.556Z,-0.40
2022-11-19T02:07:21.981Z,-0.50
2022-11-19T02:09:49.985Z,-0.50
2022-11-19T02:12:38.032Z,-0.50
2022-11-19T02:15:45.971Z,-0.50
2022-11-19T02:18:31.444Z,-0.40
2022-11-19T02:21:04.720Z,-0.40
2022-11-19T02:24:09.231Z,-0.40
2022-11-19T02:27:06.623Z,-0.40
2022-11-19T02:30:06.584Z,-0.50
2022-11-19T02:32:54.395Z,-0.50
2022-11-19T02:35:55.465Z,-0.60
2022-11-19T02:38:41.662Z,-0.70
2022-11-19T02:41:38.957Z,-0.70
2022-11-19T02:44:52.764Z,-0.70
2022-11-19T02:47:29.879Z,-0.70
2022-11-19T02:50:07.270Z,-0.80
2022-11-19T02:52:36.428Z,-0.80
2022-11-19T02:55:04.066Z,-0.90
2022-11-19T02:57:31.443Z,-0.90
2022-11-19T03:00:06.293Z,-0.90
2022-11-19T03:02:42.447Z,-0.90
2022-11-19T03:05:20.650Z,-0.90
2022-11-19T03:07:49.002Z,-0.90
2022-11-19T03:10:19.904Z,-0.90
2022-11-19T03:13:20.998Z,-0.90
2022-11-19T03:15:52.705Z,-1.00
2022-11-19T03:18:38.760Z,-1.00
2022-11-19T03:21:23.289Z,-0.90
2022-11-19T03:24:01.347Z,-1.00
2022-11-19T03:26:42.811Z,-1.00
2022-11-19T03:29:14.905Z,-1.00
2022-11-19T03:31:51.332Z,-1.10
2022-11-19T03:34:25.599Z,-1.10
2022-11-19T03:36:58.263Z,-1.10
2022-11-19T03:39:25.937Z,-1.10
2022-11-19T03:41:56.716Z,-1.10
2022-11-19T03:44:36.588Z,-1.10
2022-11-19T03:47:13.010Z,-1.10
2022-11-19T03:49:46.595Z,-1.10
2022-11-19T03:52:21.876Z,-1.10
2022-11-19T03:54:49.170Z,-1.10
2022-11-19T03:57:23.518Z,-1.00
2022-11-19T03:59:50.751Z,-1.10
2022-11-19T04:02:19.015Z,-1.10
2022-11-19T04:04:46.231Z,-1.10
2022-11-19T04:07:24.962Z,-1.10
2022-11-19T04:09:52.169Z,-1.00
2022-11-19T04:12:25.185Z,-0.90
2022-11-19T04:14:52.877Z,-1.00
2022-11-19T04:17:20.685Z,-1.00
2022-11-19T04:19:48.230Z,-1.00
2022-11-19T04:22:15.536Z,-1.10
2022-11-19T04:24:42.837Z,-1.10
2022-11-19T04:27:10.041Z,-1.00
2022-11-19T04:29:37.480Z,-1.00
2022-11-19T04:32:05.120Z,-0.90
2022-11-19T04:34:32.324Z,-1.00
2022-11-19T04:36:59.533Z,-1.10
2022-11-19T04:39:27.092Z,-1.10
2022-11-19T04:41:54.257Z,-1.10
2022-11-19T04:44:21.957Z,-1.20
2022-11-19T04:46:49.203Z,-1.30
2022-11-19T04:49:16.548Z,-1.30
2022-11-19T04:51:43.912Z,-1.30
2022-11-19T04:54:11.184Z,-1.40
2022-11-19T04:56:38.464Z,-1.40
2022-11-19T04:59:06.074Z,-1.40
2022-11-19T05:01:33.437Z,-1.50
2022-11-19T05:04:00.830Z,-1.50
2022-11-19T05:06:28.088Z,-1.50
2022-11-19T05:08:55.430Z,-1.40
2022-11-19T05:11:22.753Z,-1.40
2022-11-19T05:13:50.265Z,-1.40
2022-11-19T05:16:20.578Z,-1.40
2022-11-19T05:18:48.053Z,-1.40
2022-11-19T05:21:15.469Z,-1.40
2022-11-19T05:23:42.879Z,-1.50
2022-11-19T05:26:10.201Z,-1.40
2022-11-19T05:28:39.741Z,-1.50
2022-11-19T05:31:08.095Z,-1.50
2022-11-19T05:33:35.517Z,-1.40
2022-11-19T05:36:04.144Z,-1.50
2022-11-19T05:38:31.433Z,-1.40
2022-11-19T05:40:58.653Z,-1.50
2022-11-19T05:43:25.878Z,-1.60
2022-11-19T05:45:53.192Z,-1.60
2022-11-19T05:48:20.374Z,-1.60
2022-11-19T05:50:47.560Z,-1.60
2022-11-19T05:53:15.012Z,-1.50
2022-11-19T05:55:42.273Z,-1.60
2022-11-19T05:58:09.507Z,-1.60
2022-11-19T06:00:37.181Z,-1.50
2022-11-19T06:03:04.545Z,-1.50
2022-11-19T06:05:35.897Z,-1.50
2022-11-19T06:08:06.466Z,-1.60
2022-11-19T06:10:34.006Z,-1.50
2022-11-19T06:13:01.656Z,-1.50
2022-11-19T06:15:28.900Z,-1.50
2022-11-19T06:17:59.109Z,-1.60
2022-11-19T06:20:26.285Z,-1.70
2022-11-19T06:22:53.659Z,-1.70
2022-11-19T06:25:21.109Z,-1.70
2022-11-19T06:27:48.340Z,-1.80
2022-11-19T06:30:15.872Z,-1.80
2022-11-19T06:32:44.025Z,-1.80
2022-11-19T06:35:14.160Z,-1.70
2022-11-19T06:37:41.615Z,-1.70
2022-11-19T06:40:09.953Z,-1.70
2022-11-19T06:42:37.414Z,-1.80
2022-11-19T06:45:14.188Z,-1.80
2022-11-19T06:47:42.493Z,-1.80
2022-11-19T06:50:11.161Z,-1.80
2022-11-19T06:52:38.552Z,-1.80
2022-11-19T06:55:06.575Z,-1.80
2022-11-19T06:57:33.840Z,-1.80
2022-11-19T07:00:01.113Z,-1.80
2022-11-19T07:02:28.596Z,-1.80
2022-11-19T07:04:56.047Z,-1.80
2022-11-19T07:07:23.442Z,-1.70
2022-11-19T07:09:50.741Z,-1.60
2022-11-19T07:12:17.973Z,-1.50
2022-11-19T07:14:45.165Z,-1.60
2022-11-19T07:17:12.341Z,-1.50
2022-11-19T07:19:39.787Z,-1.50
2022-11-19T07:22:07.112Z,-1.40
2022-11-19T07:24:34.503Z,-1.40
2022-11-19T07:27:01.817Z,-1.40
2022-11-19T07:29:29.115Z,-1.30
2022-11-19T07:31:56.567Z,-1.20
2022-11-19T07:34:23.762Z,-1.10
2022-11-19T07:36:51.048Z,-1.10
2022-11-19T07:39:18.738Z,-1.10
2022-11-19T07:41:46.113Z,-1.00
2022-11-19T07:44:13.520Z,-0.90
2022-11-19T07:46:42.013Z,-0.80
2022-11-19T07:49:09.688Z,-0.80
2022-11-19T07:51:36.902Z,-0.80
2022-11-19T07:54:05.018Z,-0.80
2022-11-19T07:56:32.836Z,-0.70
2022-11-19T07:59:01.191Z,-0.70
2022-11-19T08:01:28.650Z,-0.70
2022-11-19T08:03:56.992Z,-0.70
2022-11-19T08:06:27.254Z,-0.50
2022-11-19T08:08:57.516Z,-0.50
2022-11-19T08:11:25.027Z,-0.50
2022-11-19T08:13:53.489Z,-0.50
2022-11-19T08:16:21.650Z,-0.40
2022-11-19T08:18:48.770Z,-0.40
2022-11-19T08:21:16.155Z,-0.30
2022-11-19T08:23:43.316Z,-0.10
2022-11-19T08:26:10.872Z,0.00
2022-11-19T08:28:38.172Z,0.10
2022-11-19T08:31:08.681Z,0.20
2022-11-19T08:33:36.561Z,0.30
2022-11-19T08:36:04.877Z,0.40
2022-11-19T08:38:37.220Z,0.40
2022-11-19T08:41:06.205Z,0.50
2022-11-19T08:43:33.432Z,0.60
2022-11-19T08:46:00.595Z,0.60
2022-11-19T08:48:28.001Z,0.60
2022-11-19T08:50:55.258Z,0.70
2022-11-19T08:53:22.422Z,0.70
2022-11-19T08:55:52.498Z,0.70
2022-11-19T08:58:19.688Z,0.80
2022-11-19T09:00:47.099Z,0.80
2022-11-19T09:03:14.684Z,0.80
2022-11-19T09:05:41.992Z,0.90
2022-11-19T09:08:09.347Z,0.90
2022-11-19T09:10:38.726Z,1.00
2022-11-19T09:13:06.636Z,1.00
2022-11-19T09:15:33.881Z,1.00
2022-11-19T09:18:01.054Z,1.10
2022-11-19T09:20:28.242Z,1.10
2022-11-19T09:22:55.443Z,1.20
2022-11-19T09:25:22.756Z,1.20
2022-11-19T09:27:50.071Z,1.30
2022-11-19T09:30:17.339Z,1.30
2022-11-19T09:32:44.569Z,1.40
2022-11-19T09:35:11.817Z,1.40
2022-11-19T09:37:38.946Z,1.40
2022-11-19T09:40:07.494Z,1.50
2022-11-19T09:43:08.461Z,1.50
2022-11-19T09:46:02.265Z,1.60
2022-11-19T09:48:39.199Z,1.60
2022-11-19T09:51:20.185Z,1.60
2022-11-19T09:54:04.923Z,1.70
2022-11-19T09:56:44.329Z,1.70
2022-11-19T09:59:30.670Z,1.80
2022-11-19T10:01:58.581Z,1.70
2022-11-19T10:04:31.725Z,1.80
2022-11-19T10:07:13.596Z,1.90
2022-11-19T10:10:23.889Z,1.90
2022-11-19T10:13:09.457Z,2.00
2022-11-19T10:16:00.027Z,2.00
2022-11-19T10:18:45.530Z,2.00
2022-11-19T10:21:54.036Z,2.10
2022-11-19T10:24:38.940Z,2.10
2022-11-19T10:27:27.256Z,2.20
2022-11-19T10:29:59.987Z,2.30
2022-11-19T10:32:34.561Z,2.30
2022-11-19T10:35:15.148Z,2.30
2022-11-19T10:38:23.804Z,2.30
2022-11-19T10:41:04.670Z,2.40
2022-11-19T10:43:42.627Z,2.40
2022-11-19T10:46:15.173Z,2.50
2022-11-19T10:49:01.596Z,2.60
2022-11-19T10:51:40.958Z,2.50
2022-11-19T10:54:25.955Z,2.60
2022-11-19T10:56:56.027Z,2.70
2022-11-19T10:59:27.805Z,2.70
2022-11-19T11:02:03.553Z,2.70
2022-11-19T11:04:31.129Z,2.80
2022-11-19T11:07:05.288Z,2.80
2022-11-19T11:09:38.948Z,2.70
2022-11-19T11:12:17.979Z,2.70
2022-11-19T11:14:47.201Z,2.70
2022-11-19T11:17:25.548Z,2.80
2022-11-19T11:20:06.751Z,2.90
2022-11-19T11:22:36.087Z,3.00
2022-11-19T11:25:07.199Z,3.30
2022-11-19T11:27:35.954Z,3.50
2022-11-19T11:30:12.317Z,3.60
2022-11-19T11:32:42.334Z,3.80
2022-11-19T11:35:36.582Z,3.80
2022-11-19T11:38:05.433Z,3.90
2022-11-19T11:40:32.823Z,3.90
2022-11-19T11:43:00.340Z,4.00
2022-11-19T11:45:35.048Z,4.30
2022-11-19T11:48:21.639Z,4.90
2022-11-19T11:50:49.185Z,4.90
2022-11-19T11:53:30.416Z,4.90
2022-11-19T11:56:00.712Z,4.90
2022-11-19T11:58:34.622Z,4.90
2022-11-19T12:01:17.070Z,4.90
2022-11-19T12:03:59.247Z,4.80
2022-11-19T12:06:49.886Z,4.80
2022-11-19T12:09:59.560Z,4.80
2022-11-19T12:12:35.526Z,4.70
2022-11-19T12:15:09.105Z,4.80
2022-11-19T12:17:49.500Z,4.70
2022-11-19T12:20:35.456Z,4.70
2022-11-19T12:23:56.365Z,4.70
2022-11-19T12:26:59.996Z,4.60
2022-11-19T12:29:57.829Z,4.60
2022-11-19T12:32:50.993Z,4.60
2022-11-19T12:35:20.854Z,4.60
2022-11-19T12:38:02.964Z,4.60
2022-11-19T12:41:00.901Z,4.60
2022-11-19T12:43:51.958Z,4.50
2022-11-19T12:46:49.299Z,4.50
2022-11-19T12:49:47.769Z,4.40
2022-11-19T12:52:32.841Z,4.30
2022-11-19T12:55:18.373Z,4.30
2022-11-19T12:58:10.576Z,4.30
2022-11-19T13:00:47.679Z,4.20
2022-11-19T13:03:47.178Z,4.20
2022-11-19T13:06:31.148Z,4.20
2022-11-19T13:09:09.529Z,4.20
2022-11-19T13:11:50.782Z,4.20
2022-11-19T13:14:35.511Z,4.10
2022-11-19T13:17:10.392Z,4.20
2022-11-19T13:19:39.737Z,4.20
2022-11-19T13:22:16.220Z,4.10
2022-11-19T13:24:58.801Z,4.10
2022-11-19T13:27:28.741Z,4.10
2022-11-19T13:30:22.302Z,4.00
2022-11-19T13:33:40.060Z,4.00
2022-11-19T13:36:31.295Z,3.90
2022-11-19T13:39:10.632Z,3.80
2022-11-19T13:41:50.746Z,3.80
2022-11-19T13:44:18.780Z,3.70
2022-11-19T13:47:01.301Z,3.70
2022-11-19T13:49:43.467Z,3.70
2022-11-19T13:52:30.561Z,3.60
2022-11-19T13:55:00.772Z,3.60
2022-11-19T13:57:40.553Z,3.60
2022-11-19T14:00:29.095Z,3.50
2022-11-19T14:03:15.806Z,3.40
2022-11-19T14:06:28.394Z,3.40
2022-11-19T14:09:19.416Z,3.30
2022-11-19T14:12:27.016Z,3.20
2022-11-19T14:15:26.947Z,3.10
2022-11-19T14:18:03.071Z,3.10
2022-11-19T14:20:39.988Z,3.20
2022-11-19T14:23:08.804Z,3.20
2022-11-19T14:25:49.210Z,3.10
2022-11-19T14:28:44.235Z,3.00
2022-11-19T14:31:15.382Z,3.00
2022-11-19T14:33:48.326Z,3.00
2022-11-19T14:36:24.136Z,2.90
2022-11-19T14:39:02.986Z,2.80
2022-11-19T14:41:35.814Z,2.80
2022-11-19T14:44:19.514Z,2.70
2022-11-19T14:46:50.852Z,2.80
2022-11-19T14:49:34.863Z,2.70
2022-11-19T14:52:02.947Z,2.80
2022-11-19T14:54:39.802Z,2.60
2022-11-19T14:57:28.514Z,2.60
2022-11-19T15:00:06.616Z,2.60
2022-11-19T15:02:40.944Z,2.60
2022-11-19T15:05:22.738Z,2.60
2022-11-19T15:08:11.942Z,2.50
2022-11-19T15:11:08.240Z,2.40
2022-11-19T15:13:40.969Z,2.30
2022-11-19T15:16:12.505Z,2.30
2022-11-19T15:18:42.816Z,2.20
2022-11-19T15:21:53.089Z,2.20
2022-11-19T15:25:04.488Z,2.20
2022-11-19T15:28:06.539Z,2.10
2022-11-19T15:31:15.009Z,2.10
2022-11-19T15:34:19.029Z,2.00
2022-11-19T15:36:52.179Z,2.00
2022-11-19T15:39:46.177Z,2.00
2022-11-19T15:42:27.419Z,1.90
2022-11-19T15:45:30.277Z,1.90
2022-11-19T15:48:16.261Z,1.80
2022-11-19T15:50:45.144Z,1.70
2022-11-19T15:53:24.291Z,1.60
2022-11-19T15:55:56.584Z,1.60
2022-11-19T15:58:37.676Z,1.50
2022-11-19T16:01:09.998Z,1.50
2022-11-19T16:03:39.651Z,1.50
2022-11-19T16:06:30.386Z,1.50
2022-11-19T16:09:21.647Z,1.40
2022-11-19T16:11:49.493Z,1.30
2022-11-19T16:14:25.465Z,1.40
2022-11-19T16:16:53.001Z,1.20
2022-11-19T16:19:22.298Z,1.20
2022-11-19T16:22:00.626Z,1.10
2022-11-19T16:24:32.206Z,1.10
2022-11-19T16:27:04.600Z,1.20
2022-11-19T16:29:41.062Z,1.20
2022-11-19T16:32:08.776Z,1.10
2022-11-19T16:34:37.300Z,1.00
2022-11-19T16:37:38.443Z,0.90
2022-11-19T16:40:06.771Z,0.90
2022-11-19T16:42:34.775Z,0.90
2022-11-19T16:45:24.052Z,0.90
2022-11-19T16:47:59.622Z,0.80
2022-11-19T16:50:42.256Z,0.80
2022-11-19T16:53:11.091Z,0.90
2022-11-19T16:55:41.594Z,0.80
2022-11-19T16:58:22.366Z,0.70
2022-11-19T17:00:55.029Z,0.70
2022-11-19T17:03:22.171Z,0.70
2022-11-19T17:05:53.049Z,0.70
2022-11-19T17:08:36.000Z,0.70
2022-11-19T17:11:38.122Z,0.80
2022-11-19T17:14:23.720Z,0.70
2022-11-19T17:16:53.378Z,0.60
2022-11-19T17:19:32.920Z,0.70
2022-11-19T17:22:14.021Z,0.70
2022-11-19T17:24:45.540Z,0.70
2022-11-19T17:27:36.459Z,0.60
2022-11-19T17:30:11.219Z,0.60
2022-11-19T17:32:46.909Z,0.50
2022-11-19T17:35:42.173Z,0.40
2022-11-19T17:38:24.174Z,0.40
2022-11-19T17:40:55.216Z,0.50
2022-11-19T17:43:43.020Z,0.40
2022-11-19T17:46:10.575Z,0.40
2022-11-19T17:48:42.007Z,0.40
2022-11-19T17:51:14.944Z,0.30
2022-11-19T17:53:42.309Z,0.30
2022-11-19T17:56:30.911Z,0.40
2022-11-19T17:58:58.107Z,0.40
2022-11-19T18:01:25.628Z,0.30
2022-11-19T18:03:52.846Z,0.20
2022-11-19T18:06:20.068Z,0.20
2022-11-19T18:08:47.506Z,0.20
2022-11-19T18:11:24.968Z,0.30
2022-11-19T18:13:59.433Z,0.30
2022-11-19T18:16:31.769Z,0.30
2022-11-19T18:18:58.950Z,0.20
2022-11-19T18:21:26.562Z,0.20
2022-11-19T18:23:53.920Z,0.20
2022-11-19T18:26:23.264Z,0.20
2022-11-19T18:28:50.662Z,0.20
2022-11-19T18:31:28.026Z,0.10
2022-11-19T18:33:57.053Z,0.20
2022-11-19T18:36:25.728Z,0.20
2022-11-19T18:38:53.543Z,0.10
2022-11-19T18:41:20.762Z,0.00
2022-11-19T18:43:48.291Z,0.10
2022-11-19T18:46:15.529Z,0.00
2022-11-19T18:48:42.782Z,0.00
2022-11-19T18:51:12.228Z,0.10
2022-11-19T18:53:39.825Z,0.00
2022-11-19T18:56:12.678Z,0.00
2022-11-19T18:58:39.952Z,0.00
2022-11-19T19:01:07.373Z,0.10
2022-11-19T19:03:35.850Z,-0.10
2022-11-19T19:06:08.985Z,-0.10
2022-11-19T19:08:36.625Z,-0.10
2022-11-19T19:11:08.668Z,-0.10
2022-11-19T19:13:36.137Z,-0.20
2022-11-19T19:16:03.363Z,-0.20
2022-11-19T19:18:30.544Z,-0.20
2022-11-19T19:20:57.732Z,-0.20
2022-11-19T19:23:25.185Z,-0.20
2022-11-19T19:25:52.499Z,-0.10
2022-11-19T19:28:20.113Z,-0.20
2022-11-19T19:30:47.419Z,-0.20
2022-11-19T19:33:14.613Z,-0.10
2022-11-19T19:35:41.843Z,-0.20
2022-11-19T19:38:09.009Z,-0.20
2022-11-19T19:40:36.240Z,-0.10
2022-11-19T19:43:03.432Z,-0.20
2022-11-19T19:45:30.723Z,-0.20
2022-11-19T19:47:58.021Z,-0.20
2022-11-19T19:50:25.248Z,-0.30
2022-11-19T19:52:52.558Z,-0.30
2022-11-19T19:55:19.916Z,-0.30
2022-11-19T19:57:46.998Z,-0.20
2022-11-19T20:00:18.933Z,-0.20
2022-11-19T20:02:48.507Z,-0.20
2022-11-19T20:05:16.420Z,-0.20
2022-11-19T20:07:43.829Z,-0.10
2022-11-19T20:10:11.156Z,-0.10
2022-11-19T20:12:38.536Z,-0.10
2022-11-19T20:15:06.847Z,-0.20
2022-11-19T20:17:34.095Z,-0.30
2022-11-19T20:20:01.304Z,-0.30
2022-11-19T20:22:28.743Z,-0.20
2022-11-19T20:24:55.997Z,-0.30
2022-11-19T20:27:23.219Z,-0.30
2022-11-19T20:29:50.396Z,-0.40
2022-11-19T20:32:17.769Z,-0.40
2022-11-19T20:34:44.975Z,-0.40
2022-11-19T20:37:12.156Z,-0.40
2022-11-19T20:39:39.381Z,-0.40
2022-11-19T20:42:07.010Z,-0.30
2022-11-19T20:44:34.513Z,-0.30
2022-11-19T20:47:04.231Z,-0.30
2022-11-19T20:49:35.389Z,-0.40
2022-11-19T20:52:03.166Z,-0.50
2022-11-19T20:54:30.734Z,-0.50
2022-11-19T20:56:59.246Z,-0.50
2022-11-19T20:59:28.355Z,-0.40
2022-11-19T21:01:57.075Z,-0.40
2022-11-19T21:04:27.037Z,-0.50
2022-11-19T21:06:54.737Z,-0.60
2022-11-19T21:09:22.485Z,-0.60
2022-11-19T21:11:49.897Z,-0.60
2022-11-19T21:14:17.102Z,-0.60
2022-11-19T21:16:44.634Z,-0.70
2022-11-19T21:19:12.373Z,-0.70
2022-11-19T21:21:40.230Z,-0.80
2022-11-19T21:24:08.211Z,-0.80
2022-11-19T21:26:35.430Z,-0.90
2022-11-19T21:29:02.684Z,-0.80
2022-11-19T21:31:36.661Z,-0.80
2022-11-19T21:34:13.488Z,-0.90
2022-11-19T21:36:43.227Z,-0.90
2022-11-19T21:39:11.619Z,-1.00
2022-11-19T21:41:39.089Z,-1.00
2022-11-19T21:44:06.998Z,-1.00
2022-11-19T21:46:35.229Z,-1.10
2022-11-19T21:49:02.730Z,-1.10
2022-11-19T21:51:30.215Z,-1.10
2022-11-19T21:53:59.185Z,-1.10
2022-11-19T21:56:27.825Z,-1.10
2022-11-19T21:58:55.084Z,-1.10
2022-11-19T22:01:22.336Z,-1.20
2022-11-19T22:03:49.612Z,-1.20
2022-11-19T22:06:16.918Z,-1.20
2022-11-19T22:08:44.788Z,-1.10
2022-11-19T22:11:13.149Z,-1.10
2022-11-19T22:13:40.302Z,-1.20
2022-11-19T22:16:08.010Z,-1.30
2022-11-19T22:18:35.221Z,-1.30
2022-11-19T22:21:03.483Z,-1.30
2022-11-19T22:23:30.852Z,-1.30
2022-11-19T22:26:06.355Z,-1.30
2022-11-19T22:28:34.488Z,-1.20
2022-11-19T22:31:01.975Z,-1.30
2022-11-19T22:33:39.250Z,-1.30
2022-11-19T22:36:10.656Z,-1.30
2022-11-19T22:38:39.650Z,-1.40
2022-11-19T22:41:10.905Z,-1.30
2022-11-19T22:43:39.660Z,-1.30
2022-11-19T22:46:09.101Z,-1.20
2022-11-19T22:48:37.955Z,-1.20
2022-11-19T22:51:14.918Z,-1.30
2022-11-19T22:53:42.702Z,-1.30
2022-11-19T22:56:13.610Z,-1.30
2022-11-19T22:58:41.852Z,-1.30
2022-11-19T23:01:32.633Z,-1.40
2022-11-19T23:04:08.916Z,-1.40
2022-11-19T23:06:37.782Z,-1.40
2022-11-19T23:09:07.372Z,-1.40
2022-11-19T23:11:34.845Z,-1.30
2022-11-19T23:14:01.922Z,-1.30
2022-11-19T23:16:29.100Z,-1.30
2022-11-19T23:18:56.350Z,-1.30
2022-11-19T23:21:27.186Z,-1.30
2022-11-19T23:23:55.983Z,-1.40
2022-11-19T23:26:27.206Z,-1.50
2022-11-19T23:28:55.217Z,-1.50
2022-11-19T23:31:32.686Z,-1.50
2022-11-19T23:33:59.987Z,-1.40
2022-11-19T23:36:39.422Z,-1.40
2022-11-19T23:39:10.358Z,-1.50
2022-11-19T23:41:37.627Z,-1.60
2022-11-19T23:44:04.880Z,-1.50
2022-11-19T23:46:35.657Z,-1.60
2022-11-19T23:49:04.763Z,-1.60
2022-11-19T23:51:36.401Z,-1.60
2022-11-19T23:54:05.456Z,-1.70
2022-11-19T23:56:35.598Z,-1.70
2022-11-19T23:59:05.097Z,-1.80
